Time;durP1;ratioP1;P1;durP2;ratioP2;P2;SDS_P1;SDS_P2;PMS_P1;PMS_P2;Temp;Humidity;BMP_temperature;BMP_pressure;BME280_temperature;BME280_humidity;BME280_pressure;Samples;Min_cycle;Max_cycle;Signal;HPM_P1;HPM_P2
2023/07/17 00:04:29;;;;;;;;;;;;;;;17.41;60.88477;101491.2;;;;-69
2023/07/17 00:09:29;;;;;;;;;;;;;;;17.37;61.25195;101488.6;;;;-67
2023/07/17 00:14:29;;;;;;;;;;;;;;;17.33;60.91992;101490.8;;;;-70
2023/07/17 00:19:29;;;;;;;;;;;;;;;17.29;61.98535;101492.5;;;;-70
2023/07/17 00:24:29;;;;;;;;;;;;;;;17.24;61.93555;101492.6;;;;-71
2023/07/17 00:27:24;;;;;;;0.2;0;;;;;;;;;;;;;-70
2023/07/17 00:29:30;;;;;;;;;;;;;;;17.19;62.48145;101489.3;;;;-70
2023/07/17 00:34:29;;;;;;;;;;;;;;;17.13;62.71094;101490;;;;-71
2023/07/17 00:39:29;;;;;;;;;;;;;;;17.1;62.72949;101491.6;;;;-69
2023/07/17 00:44:29;;;;;;;;;;;;;;;17.05;62.80078;101491.1;;;;-71
2023/07/17 00:49:31;;;;;;;;;;;;;;;17;63.05273;101495.8;;;;-71
2023/07/17 00:54:31;;;;;;;;;;;;;;;16.95;63.06836;101496.6;;;;-71
2023/07/17 00:57:29;;;;;;;0.2;0;;;;;;;;;;;;;-71
2023/07/17 00:59:30;;;;;;;;;;;;;;;16.91;63.60352;101503.7;;;;-70
2023/07/17 01:04:29;;;;;;;;;;;;;;;16.88;63.01465;101507;;;;-70
2023/07/17 01:09:29;;;;;;;;;;;;;;;16.86;62.98828;101504.3;;;;-71
2023/07/17 01:14:29;;;;;;;;;;;;;;;16.84;63.08691;101499.3;;;;-70
2023/07/17 01:19:29;;;;;;;;;;;;;;;16.82;62.74414;101502.3;;;;-70
2023/07/17 01:24:29;;;;;;;;;;;;;;;16.8;62.5166;101505.5;;;;-70
2023/07/17 01:27:29;;;;;;;0.2;0;;;;;;;;;;;;;-72
2023/07/17 01:29:29;;;;;;;;;;;;;;;16.74;63.07227;101506.2;;;;-70
2023/07/17 01:34:29;;;;;;;;;;;;;;;16.71;63.13672;101503.7;;;;-70
2023/07/17 01:39:29;;;;;;;;;;;;;;;16.75;63.10645;101508.5;;;;-71
2023/07/17 01:44:30;;;;;;;;;;;;;;;16.73;63.2627;101509.4;;;;-71
2023/07/17 01:49:29;;;;;;;;;;;;;;;16.72;63.39551;101510;;;;-71
2023/07/17 01:54:29;;;;;;;;;;;;;;;16.73;63.62402;101510.1;;;;-70
2023/07/17 01:57:31;;;;;;;0.2;0;;;;;;;;;;;;;-72
2023/07/17 01:59:30;;;;;;;;;;;;;;;16.71;63.47461;101510.9;;;;-69
2023/07/17 02:04:29;;;;;;;;;;;;;;;16.68;63.51563;101508.6;;;;-71
2023/07/17 02:09:29;;;;;;;;;;;;;;;16.64;64.15039;101507.4;;;;-73
2023/07/17 02:14:29;;;;;;;;;;;;;;;16.62;63.44922;101507;;;;-71
2023/07/17 02:19:29;;;;;;;;;;;;;;;16.55;63.87988;101514.1;;;;-72
2023/07/17 02:24:37;;;;;;;;;;;;;;;16.5;64.07617;101512;;;;-68
2023/07/17 02:27:34;;;;;;;0.2;0;;;;;;;;;;;;;-71
2023/07/17 02:29:29;;;;;;;;;;;;;;;16.51;64.35938;101514.3;;;;-71
2023/07/17 02:34:29;;;;;;;;;;;;;;;16.51;64.29004;101511.5;;;;-71
2023/07/17 02:39:29;;;;;;;;;;;;;;;16.5;64.14258;101514.8;;;;-73
2023/07/17 02:44:30;;;;;;;;;;;;;;;16.47;64.66797;101518.6;;;;-69
2023/07/17 02:49:29;;;;;;;;;;;;;;;16.46;65.61328;101524.7;;;;-68
2023/07/17 02:54:29;;;;;;;;;;;;;;;16.5;65.10156;101524;;;;-70
2023/07/17 02:57:37;;;;;;;0.2;0;;;;;;;;;;;;;-70
2023/07/17 02:59:29;;;;;;;;;;;;;;;16.51;65.16992;101527;;;;-66
2023/07/17 03:04:29;;;;;;;;;;;;;;;16.5;65.55078;101535.9;;;;-69
2023/07/17 03:09:30;;;;;;;;;;;;;;;16.54;66.04102;101533.8;;;;-73
2023/07/17 03:14:29;;;;;;;;;;;;;;;16.52;66.72461;101534.6;;;;-68
2023/07/17 03:19:29;;;;;;;;;;;;;;;16.5;66.67871;101539.9;;;;-67
2023/07/17 03:24:29;;;;;;;;;;;;;;;16.5;67.80469;101551.1;;;;-70
2023/07/17 03:27:39;;;;;;;0.2;0;;;;;;;;;;;;;-67
2023/07/17 03:29:30;;;;;;;;;;;;;;;16.49;68.3418;101549;;;;-69
2023/07/17 03:34:32;;;;;;;;;;;;;;;16.47;68.95801;101535.3;;;;-67
2023/07/17 03:39:29;;;;;;;;;;;;;;;16.43;69.75098;101543.9;;;;-68
2023/07/17 03:44:29;;;;;;;;;;;;;;;16.46;69.93555;101553.1;;;;-67
2023/07/17 03:49:29;;;;;;;;;;;;;;;16.44;70.69824;101546.5;;;;-69
2023/07/17 03:54:29;;;;;;;;;;;;;;;16.4;71.43262;101548.9;;;;-69
2023/07/17 03:57:41;;;;;;;0.2;0;;;;;;;;;;;;;-70
2023/07/17 03:59:29;;;;;;;;;;;;;;;16.39;71.40918;101547;;;;-67
2023/07/17 04:04:30;;;;;;;;;;;;;;;16.38;70.01465;101544.9;;;;-68
2023/07/17 04:09:29;;;;;;;;;;;;;;;16.35;70.27832;101547.2;;;;-69
2023/07/17 04:14:30;;;;;;;;;;;;;;;16.33;69.8916;101550;;;;-70
2023/07/17 04:19:30;;;;;;;;;;;;;;;16.3;69.3252;101556.8;;;;-70
2023/07/17 04:24:31;;;;;;;;;;;;;;;16.27;69.23047;101562;;;;-70
2023/07/17 04:27:44;;;;;;;0.2;0;;;;;;;;;;;;;-67
2023/07/17 04:29:29;;;;;;;;;;;;;;;16.26;68.94824;101568.1;;;;-70
2023/07/17 04:34:30;;;;;;;;;;;;;;;16.24;69.04688;101573.8;;;;-68
2023/07/17 04:39:29;;;;;;;;;;;;;;;16.2;68.9043;101572.9;;;;-68
2023/07/17 04:44:29;;;;;;;;;;;;;;;16.21;68.68262;101581.1;;;;-70
2023/07/17 04:49:29;;;;;;;;;;;;;;;16.23;68.53711;101585.1;;;;-69
2023/07/17 04:54:29;;;;;;;;;;;;;;;16.26;68.64453;101590.6;;;;-70
2023/07/17 04:57:48;;;;;;;0.2;0;;;;;;;;;;;;;-69
2023/07/17 04:59:29;;;;;;;;;;;;;;;16.26;68.64453;101594.5;;;;-68
2023/07/17 05:04:29;;;;;;;;;;;;;;;16.29;68.60352;101596.3;;;;-68
2023/07/17 05:09:32;;;;;;;;;;;;;;;16.3;68.7627;101598.1;;;;-69
2023/07/17 05:14:30;;;;;;;;;;;;;;;16.33;69.15039;101600;;;;-67
2023/07/17 05:19:32;;;;;;;;;;;;;;;16.4;69.24121;101601.1;;;;-67
2023/07/17 05:24:29;;;;;;;;;;;;;;;16.46;69.27148;101608.2;;;;-68
2023/07/17 05:27:51;;;;;;;0.2;0;;;;;;;;;;;;;-68
2023/07/17 05:29:29;;;;;;;;;;;;;;;16.53;70.03711;101606.8;;;;-69
2023/07/17 05:34:29;;;;;;;;;;;;;;;16.71;69.97559;101605.6;;;;-68
2023/07/17 05:39:30;;;;;;;;;;;;;;;17.3;69.49316;101615.1;;;;-68
2023/07/17 05:44:29;;;;;;;;;;;;;;;17.94;68.67871;101630.8;;;;-70
2023/07/17 05:49:30;;;;;;;;;;;;;;;18.32;67.75586;101631.2;;;;-69
2023/07/17 05:54:29;;;;;;;;;;;;;;;18.2;68.87891;101639.2;;;;-68
2023/07/17 05:57:52;;;;;;;0.2;0;;;;;;;;;;;;;-68
2023/07/17 05:59:29;;;;;;;;;;;;;;;18.18;68.61426;101642.8;;;;-68
2023/07/17 06:04:29;;;;;;;;;;;;;;;18.12;69.29395;101644.9;;;;-66
2023/07/17 06:09:29;;;;;;;;;;;;;;;18.24;68.79297;101654.4;;;;-70
2023/07/17 06:14:29;;;;;;;;;;;;;;;18.29;68.80078;101652.1;;;;-67
2023/07/17 06:19:29;;;;;;;;;;;;;;;18.46;68.25098;101662.1;;;;-67
2023/07/17 06:24:29;;;;;;;;;;;;;;;19;66.36328;101660;;;;-67
2023/07/17 06:27:57;;;;;;;1.6;0.3;;;;;;;;;;;;;-70
2023/07/17 06:29:29;;;;;;;;;;;;;;;19.44;64.86328;101672.1;;;;-68
2023/07/17 06:34:29;;;;;;;;;;;;;;;19.94;63.08594;101673.3;;;;-68
2023/07/17 06:39:29;;;;;;;;;;;;;;;20.32;61.86426;101683.1;;;;-67
2023/07/17 06:44:29;;;;;;;;;;;;;;;20.54;60.46191;101686.7;;;;-68
2023/07/17 06:49:29;;;;;;;;;;;;;;;20.48;60.41797;101689.7;;;;-68
2023/07/17 06:54:29;;;;;;;;;;;;;;;20.53;60.0166;101687.8;;;;-67
2023/07/17 06:57:57;;;;;;;0.3;0.1;;;;;;;;;;;;;-68
2023/07/17 06:59:29;;;;;;;;;;;;;;;20.7;59.45605;101688.9;;;;-69
2023/07/17 07:04:29;;;;;;;;;;;;;;;20.91;58.61914;101698.9;;;;-68
2023/07/17 07:09:30;;;;;;;;;;;;;;;21.14;58.29492;101700;;;;-67
2023/07/17 07:14:29;;;;;;;;;;;;;;;21.44;56.8623;101706.9;;;;-67
2023/07/17 07:19:29;;;;;;;;;;;;;;;21.4;57.27832;101704.9;;;;-68
2023/07/17 07:24:29;;;;;;;;;;;;;;;21.66;56.36426;101708.4;;;;-69
2023/07/17 07:28:00;;;;;;;0.2;0;;;;;;;;;;;;;-67
2023/07/17 07:29:29;;;;;;;;;;;;;;;21.62;56.32422;101720;;;;-67
2023/07/17 07:34:29;;;;;;;;;;;;;;;21.94;55.34668;101716.6;;;;-69
2023/07/17 07:39:30;;;;;;;;;;;;;;;22.38;54.41699;101710.3;;;;-68
2023/07/17 07:44:29;;;;;;;;;;;;;;;22.77;53.6377;101732.3;;;;-69
2023/07/17 07:49:32;;;;;;;;;;;;;;;22.95;52.76367;101739.1;;;;-67
2023/07/17 07:54:30;;;;;;;;;;;;;;;22.57;53.86523;101744.6;;;;-70
2023/07/17 07:58:04;;;;;;;0.3;0.1;;;;;;;;;;;;;-70
2023/07/17 07:59:29;;;;;;;;;;;;;;;22.52;53.84766;101747.7;;;;-72
2023/07/17 08:04:29;;;;;;;;;;;;;;;22.23;54.40918;101746.8;;;;-70
2023/07/17 08:09:29;;;;;;;;;;;;;;;22.33;54.41016;101756.4;;;;-71
2023/07/17 08:14:32;;;;;;;;;;;;;;;22.46;52.94727;101769.9;;;;-71
2023/07/17 08:19:32;;;;;;;;;;;;;;;22.47;52.375;101770;;;;-70
2023/07/17 08:24:29;;;;;;;;;;;;;;;22.53;51.7168;101759.5;;;;-70
2023/07/17 08:28:08;;;;;;;0.2;0;;;;;;;;;;;;;-72
2023/07/17 08:29:29;;;;;;;;;;;;;;;22.69;51.25391;101771.9;;;;-70
2023/07/17 08:34:29;;;;;;;;;;;;;;;22.71;51.93262;101779.2;;;;-71
2023/07/17 08:39:32;;;;;;;;;;;;;;;22.31;53.27344;101782;;;;-69
2023/07/17 08:44:33;;;;;;;;;;;;;;;22.13;55.27832;101782.4;;;;-70
2023/07/17 08:49:30;;;;;;;;;;;;;;;22.44;55.70605;101786.6;;;;-70
2023/07/17 08:54:30;;;;;;;;;;;;;;;22.63;55.02051;101797;;;;-69
2023/07/17 08:58:14;;;;;;;0.2;0;;;;;;;;;;;;;-71
2023/07/17 08:59:33;;;;;;;;;;;;;;;22.83;53.38086;101792.5;;;;-70
2023/07/17 09:04:30;;;;;;;;;;;;;;;23.26;52.33008;101796.5;;;;-71
2023/07/17 09:09:29;;;;;;;;;;;;;;;23.38;51.62012;101798.2;;;;-70
2023/07/17 09:14:32;;;;;;;;;;;;;;;23.66;50.55957;101793.7;;;;-71
2023/07/17 09:19:31;;;;;;;;;;;;;;;23.59;49.80566;101800.7;;;;-71
2023/07/17 09:24:30;;;;;;;;;;;;;;;23.62;49.95703;101796.4;;;;-72
2023/07/17 09:28:15;;;;;;;0.2;0;;;;;;;;;;;;;-72
2023/07/17 09:29:32;;;;;;;;;;;;;;;23.86;48.81055;101793.5;;;;-71
2023/07/17 09:34:29;;;;;;;;;;;;;;;23.74;49.16602;101811.6;;;;-70
2023/07/17 09:39:30;;;;;;;;;;;;;;;23.58;48.91797;101814.4;;;;-72
2023/07/17 09:44:31;;;;;;;;;;;;;;;23.79;48.51465;101805.3;;;;-70
2023/07/17 09:49:29;;;;;;;;;;;;;;;23.89;48.06543;101820.8;;;;-71
2023/07/17 09:54:32;;;;;;;;;;;;;;;24.49;47.05664;101820.1;;;;-70
2023/07/17 09:58:24;;;;;;;0.2;0;;;;;;;;;;;;;-70
2023/07/17 09:59:31;;;;;;;;;;;;;;;24.64;46.55371;101819.4;;;;-71
2023/07/17 10:04:32;;;;;;;;;;;;;;;24.91;46.29199;101817.7;;;;-71
2023/07/17 10:09:32;;;;;;;;;;;;;;;24.6;46.08789;101820.9;;;;-71
2023/07/17 10:14:29;;;;;;;;;;;;;;;24.82;46.74512;101821.2;;;;-71
2023/07/17 10:19:42;;;;;;;;;;;;;;;24.63;46.86426;101827.5;;;;-73
2023/07/17 10:24:32;;;;;;;;;;;;;;;24.21;48.06445;101827.7;;;;-72
2023/07/17 10:28:32;;;;;;;0.2;0;;;;;;;;;;;;;-72
2023/07/17 10:29:44;;;;;;;;;;;;;;;23.87;48.03906;101839.8;;;;-71
2023/07/17 10:34:39;;;;;;;;;;;;;;;24.23;47.76758;101846.5;;;;-69
2023/07/17 10:39:33;;;;;;;;;;;;;;;24.94;45.79883;101840.3;;;;-70
2023/07/17 10:44:37;;;;;;;;;;;;;;;25.1;45.37598;101836.2;;;;-68
2023/07/17 10:49:29;;;;;;;;;;;;;;;25;45.04297;101845.7;;;;-71
2023/07/17 10:54:31;;;;;;;;;;;;;;;25.13;45.36816;101840.6;;;;-71
2023/07/17 10:58:27;;;;;;;0.2;0;;;;;;;;;;;;;-71
2023/07/17 10:59:29;;;;;;;;;;;;;;;25.42;44.67969;101842.8;;;;-71
2023/07/17 11:04:29;;;;;;;;;;;;;;;25.45;45.13379;101847.1;;;;-72
2023/07/17 11:09:30;;;;;;;;;;;;;;;25.61;44.93066;101846.5;;;;-71
2023/07/17 11:14:29;;;;;;;;;;;;;;;25.83;44.24609;101849.5;;;;-70
2023/07/17 11:19:31;;;;;;;;;;;;;;;25.78;45.58398;101855.9;;;;-70
2023/07/17 11:24:30;;;;;;;;;;;;;;;25.75;45.1748;101856;;;;-73
2023/07/17 11:28:31;;;;;;;0.2;0;;;;;;;;;;;;;-68
2023/07/17 11:29:30;;;;;;;;;;;;;;;25.98;45.8125;101857.4;;;;-68
2023/07/17 11:34:29;;;;;;;;;;;;;;;25.81;45.5752;101861.4;;;;-68
2023/07/17 11:39:32;;;;;;;;;;;;;;;25.61;44.76758;101859.2;;;;-69
2023/07/17 11:44:31;;;;;;;;;;;;;;;25.73;45.12695;101855.5;;;;-70
2023/07/17 11:49:32;;;;;;;;;;;;;;;25.84;45.70508;101862;;;;-69
2023/07/17 11:54:31;;;;;;;;;;;;;;;25.76;44.43555;101864.8;;;;-68
2023/07/17 11:58:38;;;;;;;0.2;0;;;;;;;;;;;;;-68
2023/07/17 11:59:30;;;;;;;;;;;;;;;25.66;44.61035;101862.5;;;;-72
2023/07/17 12:04:40;;;;;;;;;;;;;;;25.49;44.87109;101861.5;;;;-68
2023/07/17 12:09:29;;;;;;;;;;;;;;;25.76;45.0957;101863.9;;;;-67
2023/07/17 12:14:30;;;;;;;;;;;;;;;25.61;43.95801;101859.6;;;;-68
2023/07/17 12:19:29;;;;;;;;;;;;;;;25.62;44.57324;101852.3;;;;-71
2023/07/17 12:24:29;;;;;;;;;;;;;;;25.85;45.11621;101849.9;;;;-67
2023/07/17 12:28:40;;;;;;;0.1;0;;;;;;;;;;;;;-69
2023/07/17 12:29:29;;;;;;;;;;;;;;;26.04;44.27832;101865.7;;;;-71
2023/07/17 12:34:30;;;;;;;;;;;;;;;26.01;44.58887;101861.2;;;;-68
2023/07/17 12:39:32;;;;;;;;;;;;;;;26.14;44.86719;101878.1;;;;-68
2023/07/17 12:44:29;;;;;;;;;;;;;;;26.03;44.78711;101874;;;;-68
2023/07/17 12:49:29;;;;;;;;;;;;;;;26.2;44.47949;101873.2;;;;-68
2023/07/17 12:54:29;;;;;;;;;;;;;;;26.45;45.18848;101876.4;;;;-67
2023/07/17 12:58:44;;;;;;;0.2;0;;;;;;;;;;;;;-67
2023/07/17 12:59:29;;;;;;;;;;;;;;;26.83;44.23926;101881.5;;;;-71
2023/07/17 13:04:29;;;;;;;;;;;;;;;26.94;43.14844;101882.1;;;;-69
2023/07/17 13:09:30;;;;;;;;;;;;;;;27.09;43.42871;101885.6;;;;-70
2023/07/17 13:14:29;;;;;;;;;;;;;;;26.86;43.63867;101883.5;;;;-67
2023/07/17 13:19:29;;;;;;;;;;;;;;;26.99;43.10645;101886.5;;;;-68
2023/07/17 13:24:29;;;;;;;;;;;;;;;27.06;42.88086;101899.3;;;;-68
2023/07/17 13:28:48;;;;;;;0.2;0;;;;;;;;;;;;;-68
2023/07/17 13:29:32;;;;;;;;;;;;;;;27.21;43.24414;101893.9;;;;-67
2023/07/17 13:34:29;;;;;;;;;;;;;;;27.42;42.4502;101898.4;;;;-69
2023/07/17 13:39:30;;;;;;;;;;;;;;;27.34;43.71973;101910.7;;;;-68
2023/07/17 13:44:29;;;;;;;;;;;;;;;27.22;42.54688;101903.9;;;;-69
2023/07/17 13:49:32;;;;;;;;;;;;;;;27.16;42.77441;101909.5;;;;-67
2023/07/17 13:54:29;;;;;;;;;;;;;;;27.05;43.00684;101921.3;;;;-68
2023/07/17 13:58:53;;;;;;;0.1;0;;;;;;;;;;;;;-69
2023/07/17 13:59:29;;;;;;;;;;;;;;;26.98;42.87207;101916.5;;;;-69
2023/07/17 14:04:29;;;;;;;;;;;;;;;26.86;43.65039;101919.1;;;;-69
2023/07/17 14:09:29;;;;;;;;;;;;;;;26.71;42.8584;101917;;;;-66
2023/07/17 14:14:29;;;;;;;;;;;;;;;26.46;43.49512;101917.5;;;;-69
2023/07/17 14:19:29;;;;;;;;;;;;;;;26.15;43.66309;101926.5;;;;-68
2023/07/17 14:24:29;;;;;;;;;;;;;;;26.03;44.01074;101931;;;;-68
2023/07/17 14:28:58;;;;;;;0.2;0;;;;;;;;;;;;;-66
2023/07/17 14:29:33;;;;;;;;;;;;;;;26.03;44.41602;101929.1;;;;-67
2023/07/17 14:34:29;;;;;;;;;;;;;;;25.92;44.38281;101939.2;;;;-68
2023/07/17 14:39:32;;;;;;;;;;;;;;;25.69;44.48633;101937.1;;;;-68
2023/07/17 14:44:29;;;;;;;;;;;;;;;25.96;44.33887;101941.8;;;;-67
2023/07/17 14:49:29;;;;;;;;;;;;;;;25.91;43.75586;101934.9;;;;-69
2023/07/17 14:54:29;;;;;;;;;;;;;;;25.85;44.52637;101932.6;;;;-67
2023/07/17 14:59:02;;;;;;;0.6;0;;;;;;;;;;;;;-70
2023/07/17 14:59:29;;;;;;;;;;;;;;;25.69;44.44043;101936.7;;;;-68
2023/07/17 15:04:29;;;;;;;;;;;;;;;25.53;44.30859;101947.4;;;;-68
2023/07/17 15:09:33;;;;;;;;;;;;;;;25.35;44.51172;101944.9;;;;-70
2023/07/17 15:14:29;;;;;;;;;;;;;;;25.3;44.90039;101933.3;;;;-69
2023/07/17 15:19:29;;;;;;;;;;;;;;;25.21;44.31152;101931.2;;;;-68
2023/07/17 15:24:29;;;;;;;;;;;;;;;25.44;44.13867;101926.5;;;;-67
2023/07/17 15:29:06;;;;;;;0.8;0.4;;;;;;;;;;;;;-68
2023/07/17 15:29:29;;;;;;;;;;;;;;;25.78;43.68555;101930;;;;-67
2023/07/17 15:34:29;;;;;;;;;;;;;;;25.76;43.68359;101937.7;;;;-73
2023/07/17 15:39:29;;;;;;;;;;;;;;;25.85;43.32129;101949.9;;;;-70
2023/07/17 15:44:29;;;;;;;;;;;;;;;25.78;43.33789;101937.8;;;;-68
2023/07/17 15:49:29;;;;;;;;;;;;;;;25.63;43.50781;101925.9;;;;-67
2023/07/17 15:54:29;;;;;;;;;;;;;;;25.59;43.03125;101918.7;;;;-68
2023/07/17 15:59:12;;;;;;;0.2;0;;;;;;;;;;;;;-68
2023/07/17 15:59:29;;;;;;;;;;;;;;;25.61;42.69629;101939.9;;;;-69
2023/07/17 16:04:29;;;;;;;;;;;;;;;25.54;42.43555;101945.2;;;;-68
2023/07/17 16:09:29;;;;;;;;;;;;;;;25.59;42.8916;101925.4;;;;-68
2023/07/17 16:14:57;;;;;;;;;;;;;;;25.34;42.84473;101928;;;;-71
2023/07/17 16:19:30;;;;;;;;;;;;;;;25.24;43.22754;101937.2;;;;-69
2023/07/17 16:24:29;;;;;;;;;;;;;;;25.21;43.35254;101950.8;;;;-70
2023/07/17 16:29:40;;;;;;;0.7;0.1;;;;;;;;;;;;;-70
2023/07/17 16:29:50;;;;;;;;;;;;;;;24.97;43.62988;101950.9;;;;-71
2023/07/17 16:34:29;;;;;;;;;;;;;;;25.06;43.12988;101957.7;;;;-69
2023/07/17 16:39:32;;;;;;;;;;;;;;;25.05;43.40527;101964.2;;;;-67
2023/07/17 16:44:31;;;;;;;;;;;;;;;25.03;43.14941;101968.5;;;;-74
2023/07/17 16:49:32;;;;;;;;;;;;;;;25.01;43.30957;101972.2;;;;-69
2023/07/17 16:54:30;;;;;;;;;;;;;;;24.74;44.27734;101971.5;;;;-69
2023/07/17 16:59:19;;;;;;;0.2;0;;;;;;;;;;;;;-70
2023/07/17 16:59:29;;;;;;;;;;;;;;;24.65;44.66113;101967;;;;-70
2023/07/17 17:04:29;;;;;;;;;;;;;;;24.6;44.71387;101979.6;;;;-69
2023/07/17 17:09:29;;;;;;;;;;;;;;;24.39;45.22363;101985.7;;;;-70
2023/07/17 17:14:29;;;;;;;;;;;;;;;24.27;45.59277;101983.5;;;;-70
2023/07/17 17:19:32;;;;;;;;;;;;;;;24.21;45.81641;101995.7;;;;-70
2023/07/17 17:24:29;;;;;;;;;;;;;;;24.06;45.7207;102001.6;;;;-70
2023/07/17 17:29:24;;;;;;;0.2;0.1;;;;;;;;;;;;;-70
2023/07/17 17:29:35;;;;;;;;;;;;;;;23.95;46.19238;102004.9;;;;-73
2023/07/17 17:34:29;;;;;;;;;;;;;;;23.76;46.25488;101999.2;;;;-73
2023/07/17 17:39:29;;;;;;;;;;;;;;;23.59;46.59375;102006.1;;;;-73
2023/07/17 17:44:29;;;;;;;;;;;;;;;23.5;46.76953;102016.4;;;;-73
2023/07/17 17:49:29;;;;;;;;;;;;;;;23.4;46.95508;102006.4;;;;-72
2023/07/17 17:54:32;;;;;;;;;;;;;;;23.3;47.09375;102004.2;;;;-72
2023/07/17 17:59:28;;;;;;;0.2;0;;;;;;;;;;;;;-73
2023/07/17 17:59:38;;;;;;;;;;;;;;;23.2;47.22168;102014.7;;;;-71
2023/07/17 18:04:29;;;;;;;;;;;;;;;23.1;47.2793;102013.9;;;;-74
2023/07/17 18:09:30;;;;;;;;;;;;;;;23.03;47.44336;102009.9;;;;-73
2023/07/17 18:14:29;;;;;;;;;;;;;;;22.9;47.72852;102024.2;;;;-72
2023/07/17 18:19:41;;;;;;;;;;;;;;;22.81;48.11035;102018.3;;;;-72
2023/07/17 18:24:32;;;;;;;;;;;;;;;22.72;48.03223;102023.2;;;;-71
2023/07/17 18:29:29;;;;;;;;;;;;;;;22.64;48.28711;102033.8;;;;-74
2023/07/17 18:29:42;;;;;;;0.2;0;;;;;;;;;;;;;-74
2023/07/17 18:34:33;;;;;;;;;;;;;;;22.55;48.33496;102034.5;;;;-71
2023/07/17 18:39:29;;;;;;;;;;;;;;;22.47;48.28027;102029;;;;-72
2023/07/17 18:44:32;;;;;;;;;;;;;;;22.42;48.43457;102037.7;;;;-72
2023/07/17 18:49:30;;;;;;;;;;;;;;;22.31;48.50391;102037.7;;;;-72
2023/07/17 18:54:30;;;;;;;;;;;;;;;22.16;48.53418;102043.6;;;;-72
2023/07/17 18:59:29;;;;;;;;;;;;;;;21.99;48.84766;102049.6;;;;-71
2023/07/17 18:59:39;;;;;;;0.2;0;;;;;;;;;;;;;-71
2023/07/17 19:04:36;;;;;;;;;;;;;;;21.83;48.47461;102053.6;;;;-72
2023/07/17 19:09:29;;;;;;;;;;;;;;;21.67;48.56055;102060;;;;-73
2023/07/17 19:14:30;;;;;;;;;;;;;;;21.5;48.81738;102068.9;;;;-73
2023/07/17 19:19:30;;;;;;;;;;;;;;;21.31;48.99121;102067.9;;;;-71
2023/07/17 19:24:29;;;;;;;;;;;;;;;21.11;49.71289;102075.4;;;;-70
2023/07/17 19:29:29;;;;;;;;;;;;;;;20.91;50.18262;102080.1;;;;-68
2023/07/17 19:29:39;;;;;;;0.2;0;;;;;;;;;;;;;-68
2023/07/17 19:34:29;;;;;;;;;;;;;;;20.73;50.60742;102087;;;;-71
2023/07/17 19:39:29;;;;;;;;;;;;;;;20.6;50.86621;102095;;;;-69
2023/07/17 19:44:29;;;;;;;;;;;;;;;20.44;51.30566;102095.8;;;;-70
2023/07/17 19:49:29;;;;;;;;;;;;;;;20.3;51.5625;102100.9;;;;-70
2023/07/17 19:54:29;;;;;;;;;;;;;;;20.17;51.60449;102106.4;;;;-70
2023/07/17 19:59:29;;;;;;;;;;;;;;;20.01;52.37109;102110.6;;;;-68
2023/07/17 19:59:43;;;;;;;0.2;0;;;;;;;;;;;;;-70
2023/07/17 20:04:30;;;;;;;;;;;;;;;19.85;52.94629;102112.4;;;;-68
2023/07/17 20:09:32;;;;;;;;;;;;;;;19.74;53.21777;102108.5;;;;-70
2023/07/17 20:14:29;;;;;;;;;;;;;;;19.61;53.25977;102109.6;;;;-69
2023/07/17 20:19:29;;;;;;;;;;;;;;;19.48;53.57422;102106.4;;;;-70
2023/07/17 20:24:29;;;;;;;;;;;;;;;19.34;53.66016;102104.5;;;;-70
2023/07/17 20:29:29;;;;;;;;;;;;;;;19.21;54.32617;102100.7;;;;-70
2023/07/17 20:29:46;;;;;;;0.2;0;;;;;;;;;;;;;-69
2023/07/17 20:34:31;;;;;;;;;;;;;;;19.08;54.26563;102098.8;;;;-68
2023/07/17 20:39:29;;;;;;;;;;;;;;;18.96;54.72656;102098.7;;;;-70
2023/07/17 20:44:29;;;;;;;;;;;;;;;18.85;54.63477;102103.3;;;;-69
2023/07/17 20:49:30;;;;;;;;;;;;;;;18.75;55.03223;102101.8;;;;-68
2023/07/17 20:54:29;;;;;;;;;;;;;;;18.61;55.34277;102108.2;;;;-68
2023/07/17 20:59:29;;;;;;;;;;;;;;;18.53;55.41211;102108.9;;;;-71
2023/07/17 20:59:49;;;;;;;0.2;0.1;;;;;;;;;;;;;-71
2023/07/17 21:04:32;;;;;;;;;;;;;;;18.44;56.37793;102106.4;;;;-71
2023/07/17 21:09:29;;;;;;;;;;;;;;;18.34;55.84375;102106.5;;;;-70
2023/07/17 21:14:29;;;;;;;;;;;;;;;18.27;56.75195;102103.9;;;;-71
2023/07/17 21:19:30;;;;;;;;;;;;;;;18.22;56.14648;102110.2;;;;-71
2023/07/17 21:24:32;;;;;;;;;;;;;;;18.15;57.08887;102113.7;;;;-71
2023/07/17 21:29:29;;;;;;;;;;;;;;;18.07;57.63379;102123.8;;;;-71
2023/07/17 21:29:51;;;;;;;0.2;0;;;;;;;;;;;;;-72
2023/07/17 21:34:29;;;;;;;;;;;;;;;18;57.4209;102123.6;;;;-70
2023/07/17 21:39:29;;;;;;;;;;;;;;;17.96;57.22363;102124.2;;;;-70
2023/07/17 21:44:29;;;;;;;;;;;;;;;17.9;57.70313;102126.5;;;;-71
2023/07/17 21:49:29;;;;;;;;;;;;;;;17.86;57.86621;102131.3;;;;-67
2023/07/17 21:54:29;;;;;;;;;;;;;;;17.79;57.90332;102130.7;;;;-69
2023/07/17 21:59:29;;;;;;;;;;;;;;;17.73;57.8623;102137.9;;;;-69
2023/07/17 21:59:55;;;;;;;0.2;0;;;;;;;;;;;;;-69
2023/07/17 22:04:29;;;;;;;;;;;;;;;17.65;57.56836;102138.3;;;;-68
2023/07/17 22:09:30;;;;;;;;;;;;;;;17.59;58.1709;102148.2;;;;-69
2023/07/17 22:14:29;;;;;;;;;;;;;;;17.54;57.91602;102148.9;;;;-68
2023/07/17 22:19:29;;;;;;;;;;;;;;;17.46;58.24512;102160.7;;;;-68
2023/07/17 22:24:29;;;;;;;;;;;;;;;17.41;58.13574;102161.1;;;;-67
2023/07/17 22:29:29;;;;;;;;;;;;;;;17.39;57.86133;102162.8;;;;-69
2023/07/17 22:29:58;;;;;;;0.2;0.1;;;;;;;;;;;;;-68
2023/07/17 22:34:29;;;;;;;;;;;;;;;17.33;58.16016;102166.2;;;;-68
2023/07/17 22:39:29;;;;;;;;;;;;;;;17.26;58.35449;102163.4;;;;-69
2023/07/17 22:44:29;;;;;;;;;;;;;;;17.21;58.22461;102162.6;;;;-69
2023/07/17 22:49:30;;;;;;;;;;;;;;;17.18;58.19824;102158;;;;-68
2023/07/17 22:54:29;;;;;;;;;;;;;;;17.14;58.27148;102166.1;;;;-68
2023/07/17 22:59:31;;;;;;;;;;;;;;;17.09;58.37695;102164.3;;;;-69
2023/07/17 23:00:03;;;;;;;0.2;0.1;;;;;;;;;;;;;-68
2023/07/17 23:04:31;;;;;;;;;;;;;;;17.02;58.90039;102162.6;;;;-69
2023/07/17 23:09:29;;;;;;;;;;;;;;;16.99;58.78223;102164.3;;;;-68
2023/07/17 23:14:31;;;;;;;;;;;;;;;16.93;58.59277;102158.1;;;;-68
2023/07/17 23:19:29;;;;;;;;;;;;;;;16.9;58.79395;102153;;;;-71
2023/07/17 23:24:29;;;;;;;;;;;;;;;16.84;58.36719;102147.3;;;;-73
2023/07/17 23:29:29;;;;;;;;;;;;;;;16.82;58.54395;102142.4;;;;-71
2023/07/17 23:30:04;;;;;;;0.2;0.1;;;;;;;;;;;;;-67
2023/07/17 23:34:29;;;;;;;;;;;;;;;16.78;58.34766;102142.3;;;;-70
2023/07/17 23:39:29;;;;;;;;;;;;;;;16.75;58.35547;102148.7;;;;-68
2023/07/17 23:44:29;;;;;;;;;;;;;;;16.69;58.2793;102148.6;;;;-69
2023/07/17 23:49:29;;;;;;;;;;;;;;;16.7;58.25781;102140.5;;;;-68
2023/07/17 23:54:29;;;;;;;;;;;;;;;16.63;58.35059;102140.2;;;;-68
2023/07/17 23:59:29;;;;;;;;;;;;;;;16.59;58.37891;102129.3;;;;-68
